sensor_id;sensor_type;location;lat;lon;timestamp;pressure;altitude;pressure_sealevel;temperature;humidity
30383;BME280;17179;48.022;7.858;2022-07-04T00:02:09;98962.47;;;22.22;40.08
30383;BME280;17179;48.022;7.858;2022-07-04T00:04:34;98974.63;;;22.21;39.75
30383;BME280;17179;48.022;7.858;2022-07-04T00:06:59;98970.25;;;22.20;40.28
30383;BME280;17179;48.022;7.858;2022-07-04T00:09:25;98968.63;;;22.19;39.88
30383;BME280;17179;48.022;7.858;2022-07-04T00:11:50;98981.94;;;22.17;40.43
30383;BME280;17179;48.022;7.858;2022-07-04T00:14:16;98985.00;;;22.15;40.72
30383;BME280;17179;48.022;7.858;2022-07-04T00:16:41;98991.97;;;22.12;40.36
30383;BME280;17179;48.022;7.858;2022-07-04T00:19:07;98988.72;;;22.10;41.02
30383;BME280;17179;48.022;7.858;2022-07-04T00:21:32;98983.56;;;22.09;40.16
30383;BME280;17179;48.022;7.858;2022-07-04T00:23:57;98976.75;;;22.06;40.72
30383;BME280;17179;48.022;7.858;2022-07-04T00:26:23;98982.53;;;22.05;41.07
30383;BME280;17179;48.022;7.858;2022-07-04T00:28:48;98984.03;;;22.02;40.14
30383;BME280;17179;48.022;7.858;2022-07-04T00:31:13;98994.56;;;22.00;40.99
30383;BME280;17179;48.022;7.858;2022-07-04T00:33:39;98990.50;;;21.97;40.28
30383;BME280;17179;48.022;7.858;2022-07-04T00:36:04;98993.56;;;21.96;40.75
30383;BME280;17179;48.022;7.858;2022-07-04T00:38:30;98996.97;;;21.93;40.67
30383;BME280;17179;48.022;7.858;2022-07-04T00:40:55;98995.34;;;21.91;40.97
30383;BME280;17179;48.022;7.858;2022-07-04T00:43:22;99003.13;;;21.89;40.48
30383;BME280;17179;48.022;7.858;2022-07-04T00:45:48;99014.13;;;21.89;39.72
30383;BME280;17179;48.022;7.858;2022-07-04T00:48:13;99018.03;;;21.88;40.38
30383;BME280;17179;48.022;7.858;2022-07-04T00:50:50;99018.34;;;21.87;40.37
30383;BME280;17179;48.022;7.858;2022-07-04T00:53:16;99012.81;;;21.87;40.06
30383;BME280;17179;48.022;7.858;2022-07-04T00:55:44;99015.91;;;21.85;40.59
30383;BME280;17179;48.022;7.858;2022-07-04T00:58:12;99020.78;;;21.88;39.90
30383;BME280;17179;48.022;7.858;2022-07-04T01:00:38;99031.63;;;21.85;40.36
30383;BME280;17179;48.022;7.858;2022-07-04T01:03:03;99026.94;;;21.85;40.71
30383;BME280;17179;48.022;7.858;2022-07-04T01:05:29;99028.06;;;21.84;40.97
30383;BME280;17179;48.022;7.858;2022-07-04T01:07:54;99028.88;;;21.85;39.95
30383;BME280;17179;48.022;7.858;2022-07-04T01:10:20;99026.94;;;21.85;39.72
30383;BME280;17179;48.022;7.858;2022-07-04T01:12:45;99023.69;;;21.83;40.56
30383;BME280;17179;48.022;7.858;2022-07-04T01:15:10;99020.63;;;21.85;40.39
30383;BME280;17179;48.022;7.858;2022-07-04T01:17:36;99022.56;;;21.84;40.06
30383;BME280;17179;48.022;7.858;2022-07-04T01:20:02;99023.69;;;21.83;40.38
30383;BME280;17179;48.022;7.858;2022-07-04T01:22:27;99015.41;;;21.83;40.52
30383;BME280;17179;48.022;7.858;2022-07-04T01:24:52;99018.50;;;21.82;41.07
30383;BME280;17179;48.022;7.858;2022-07-04T01:27:18;99017.69;;;21.81;40.60
30383;BME280;17179;48.022;7.858;2022-07-04T01:29:44;99029.84;;;21.80;40.11
30383;BME280;17179;48.022;7.858;2022-07-04T01:32:09;99033.75;;;21.79;40.45
30383;BME280;17179;48.022;7.858;2022-07-04T01:34:35;99034.84;;;21.78;39.88
30383;BME280;17179;48.022;7.858;2022-07-04T01:37:01;99030.50;;;21.77;40.13
30383;BME280;17179;48.022;7.858;2022-07-04T01:39:27;99032.75;;;21.75;40.08
30383;BME280;17179;48.022;7.858;2022-07-04T01:41:53;99037.78;;;21.73;40.35
30383;BME280;17179;48.022;7.858;2022-07-04T01:44:18;99038.59;;;21.73;40.41
30383;BME280;17179;48.022;7.858;2022-07-04T01:46:44;99033.38;;;21.72;40.48
30383;BME280;17179;48.022;7.858;2022-07-04T01:49:09;99035.66;;;21.70;40.16
30383;BME280;17179;48.022;7.858;2022-07-04T01:51:34;99034.03;;;21.69;40.55
30383;BME280;17179;48.022;7.858;2022-07-04T01:54:00;99038.72;;;21.68;40.78
30383;BME280;17179;48.022;7.858;2022-07-04T01:56:25;99041.81;;;21.66;39.93
30383;BME280;17179;48.022;7.858;2022-07-04T01:58:51;99034.69;;;21.65;40.59
30383;BME280;17179;48.022;7.858;2022-07-04T02:01:16;99036.94;;;21.63;40.73
30383;BME280;17179;48.022;7.858;2022-07-04T02:04:01;99036.31;;;21.66;40.33
30383;BME280;17179;48.022;7.858;2022-07-04T02:06:27;99034.31;;;21.58;39.93
30383;BME280;17179;48.022;7.858;2022-07-04T02:08:53;99040.16;;;21.57;40.53
30383;BME280;17179;48.022;7.858;2022-07-04T02:11:37;99054.56;;;21.53;40.31
30383;BME280;17179;48.022;7.858;2022-07-04T02:14:21;99056.81;;;21.51;39.95
30383;BME280;17179;48.022;7.858;2022-07-04T02:16:47;99067.66;;;21.48;41.14
30383;BME280;17179;48.022;7.858;2022-07-04T02:19:13;99081.75;;;21.46;40.60
30383;BME280;17179;48.022;7.858;2022-07-04T02:21:38;99089.19;;;21.46;41.49
30383;BME280;17179;48.022;7.858;2022-07-04T02:24:04;99084.31;;;21.42;41.34
30383;BME280;17179;48.022;7.858;2022-07-04T02:26:30;99090.94;;;21.41;41.72
30383;BME280;17179;48.022;7.858;2022-07-04T02:28:55;99096.75;;;21.40;42.14
30383;BME280;17179;48.022;7.858;2022-07-04T02:31:20;99096.28;;;21.38;41.68
30383;BME280;17179;48.022;7.858;2022-07-04T02:33:46;99108.69;;;21.35;41.28
30383;BME280;17179;48.022;7.858;2022-07-04T02:36:11;99099.94;;;21.33;41.80
30383;BME280;17179;48.022;7.858;2022-07-04T02:38:36;99093.16;;;21.30;41.93
30383;BME280;17179;48.022;7.858;2022-07-04T02:41:02;99088.25;;;21.27;40.95
30383;BME280;17179;48.022;7.858;2022-07-04T02:43:27;99083.41;;;21.24;39.95
30383;BME280;17179;48.022;7.858;2022-07-04T02:45:53;99088.41;;;21.22;39.42
30383;BME280;17179;48.022;7.858;2022-07-04T02:48:18;99080.81;;;21.19;39.23
30383;BME280;17179;48.022;7.858;2022-07-04T02:50:43;99078.66;;;21.16;39.87
30383;BME280;17179;48.022;7.858;2022-07-04T02:53:09;99069.91;;;21.14;41.14
30383;BME280;17179;48.022;7.858;2022-07-04T02:55:34;99065.56;;;21.13;40.52
30383;BME280;17179;48.022;7.858;2022-07-04T02:58:00;99056.31;;;21.08;41.21
30383;BME280;17179;48.022;7.858;2022-07-04T03:00:25;99063.28;;;21.06;40.12
30383;BME280;17179;48.022;7.858;2022-07-04T03:02:50;99081.22;;;21.03;40.70
30383;BME280;17179;48.022;7.858;2022-07-04T03:05:16;99102.22;;;20.99;40.25
30383;BME280;17179;48.022;7.858;2022-07-04T03:07:41;99097.84;;;20.98;38.87
30383;BME280;17179;48.022;7.858;2022-07-04T03:10:07;99105.88;;;20.94;38.76
30383;BME280;17179;48.022;7.858;2022-07-04T03:12:32;99091.19;;;20.90;39.59
30383;BME280;17179;48.022;7.858;2022-07-04T03:14:57;99095.66;;;20.86;39.15
30383;BME280;17179;48.022;7.858;2022-07-04T03:17:25;99096.28;;;20.83;39.33
30383;BME280;17179;48.022;7.858;2022-07-04T03:19:50;99087.56;;;20.81;40.99
30383;BME280;17179;48.022;7.858;2022-07-04T03:22:16;99086.56;;;20.77;40.58
30383;BME280;17179;48.022;7.858;2022-07-04T03:24:41;99086.06;;;20.75;40.06
30383;BME280;17179;48.022;7.858;2022-07-04T03:27:06;99084.75;;;20.72;41.63
30383;BME280;17179;48.022;7.858;2022-07-04T03:29:32;99074.38;;;20.69;40.71
30383;BME280;17179;48.022;7.858;2022-07-04T03:31:57;99082.94;;;20.67;41.53
30383;BME280;17179;48.022;7.858;2022-07-04T03:34:22;99075.28;;;20.64;41.36
30383;BME280;17179;48.022;7.858;2022-07-04T03:36:48;99072.03;;;20.62;41.07
30383;BME280;17179;48.022;7.858;2022-07-04T03:39:13;99067.19;;;20.59;41.12
30383;BME280;17179;48.022;7.858;2022-07-04T03:41:38;99065.06;;;20.56;41.28
30383;BME280;17179;48.022;7.858;2022-07-04T03:44:04;99059.06;;;20.54;40.96
30383;BME280;17179;48.022;7.858;2022-07-04T03:46:29;99066.81;;;20.52;41.28
30383;BME280;17179;48.022;7.858;2022-07-04T03:48:55;99076.78;;;20.47;41.68
30383;BME280;17179;48.022;7.858;2022-07-04T03:51:20;99068.88;;;20.46;41.66
30383;BME280;17179;48.022;7.858;2022-07-04T03:53:48;99064.81;;;20.43;42.38
30383;BME280;17179;48.022;7.858;2022-07-04T03:56:13;99069.78;;;20.41;42.71
30383;BME280;17179;48.022;7.858;2022-07-04T03:58:38;99052.03;;;20.38;42.66
30383;BME280;17179;48.022;7.858;2022-07-04T04:01:04;99060.88;;;20.35;42.67
30383;BME280;17179;48.022;7.858;2022-07-04T04:03:29;99060.69;;;20.32;42.95
30383;BME280;17179;48.022;7.858;2022-07-04T04:06:13;99065.66;;;20.30;43.37
30383;BME280;17179;48.022;7.858;2022-07-04T04:08:39;99070.97;;;20.26;43.34
30383;BME280;17179;48.022;7.858;2022-07-04T04:11:04;99073.22;;;20.24;43.28
30383;BME280;17179;48.022;7.858;2022-07-04T04:13:29;99076.59;;;20.21;44.13
30383;BME280;17179;48.022;7.858;2022-07-04T04:15:55;99087.91;;;20.19;43.86
30383;BME280;17179;48.022;7.858;2022-07-04T04:18:20;99090.13;;;20.17;43.63
30383;BME280;17179;48.022;7.858;2022-07-04T04:20:45;99095.13;;;20.15;43.79
30383;BME280;17179;48.022;7.858;2022-07-04T04:23:11;99086.88;;;20.15;43.33
30383;BME280;17179;48.022;7.858;2022-07-04T04:25:36;99095.44;;;20.13;42.41
30383;BME280;17179;48.022;7.858;2022-07-04T04:28:01;99089.44;;;20.11;42.50
30383;BME280;17179;48.022;7.858;2022-07-04T04:30:27;99108.66;;;20.11;42.69
30383;BME280;17179;48.022;7.858;2022-07-04T04:32:52;99110.91;;;20.09;42.60
30383;BME280;17179;48.022;7.858;2022-07-04T04:35:18;99110.91;;;20.09;42.01
30383;BME280;17179;48.022;7.858;2022-07-04T04:37:44;99125.41;;;20.10;41.20
30383;BME280;17179;48.022;7.858;2022-07-04T04:40:10;99133.66;;;20.10;40.99
30383;BME280;17179;48.022;7.858;2022-07-04T04:42:36;99136.41;;;20.10;41.11
30383;BME280;17179;48.022;7.858;2022-07-04T04:45:03;99132.56;;;20.11;40.33
30383;BME280;17179;48.022;7.858;2022-07-04T04:47:29;99148.19;;;20.10;40.25
30383;BME280;17179;48.022;7.858;2022-07-04T04:49:54;99165.50;;;20.11;40.44
30383;BME280;17179;48.022;7.858;2022-07-04T04:52:19;99184.72;;;20.11;40.85
30383;BME280;17179;48.022;7.858;2022-07-04T04:54:45;99191.31;;;20.10;40.39
30383;BME280;17179;48.022;7.858;2022-07-04T04:57:10;99200.38;;;20.10;40.58
30383;BME280;17179;48.022;7.858;2022-07-04T04:59:35;99221.50;;;20.10;40.61
30383;BME280;17179;48.022;7.858;2022-07-04T05:02:01;99225.38;;;20.09;40.60
30383;BME280;17179;48.022;7.858;2022-07-04T05:04:26;99210.84;;;20.08;40.18
30383;BME280;17179;48.022;7.858;2022-07-04T05:06:52;99191.63;;;20.08;40.78
30383;BME280;17179;48.022;7.858;2022-07-04T05:09:17;99185.34;;;20.08;40.16
30383;BME280;17179;48.022;7.858;2022-07-04T05:11:44;99173.53;;;20.07;40.00
30383;BME280;17179;48.022;7.858;2022-07-04T05:14:09;99179.03;;;20.07;40.59
30383;BME280;17179;48.022;7.858;2022-07-04T05:16:35;99178.22;;;20.07;41.00
30383;BME280;17179;48.022;7.858;2022-07-04T05:19:00;99186.94;;;20.09;40.53
30383;BME280;17179;48.022;7.858;2022-07-04T05:21:26;99176.78;;;20.09;41.02
30383;BME280;17179;48.022;7.858;2022-07-04T05:23:53;99170.16;;;20.10;40.80
30383;BME280;17179;48.022;7.858;2022-07-04T05:26:19;99168.25;;;20.11;40.71
30383;BME280;17179;48.022;7.858;2022-07-04T05:28:44;99158.88;;;20.12;40.63
30383;BME280;17179;48.022;7.858;2022-07-04T05:31:09;99152.78;;;20.15;40.65
30383;BME280;17179;48.022;7.858;2022-07-04T05:33:35;99137.09;;;20.16;41.16
30383;BME280;17179;48.022;7.858;2022-07-04T05:36:00;99132.94;;;20.18;41.06
30383;BME280;17179;48.022;7.858;2022-07-04T05:38:25;99129.59;;;20.21;40.81
30383;BME280;17179;48.022;7.858;2022-07-04T05:40:51;99125.72;;;20.22;40.73
30383;BME280;17179;48.022;7.858;2022-07-04T05:43:16;99111.66;;;20.24;40.89
30383;BME280;17179;48.022;7.858;2022-07-04T05:45:41;99118.47;;;20.26;41.06
30383;BME280;17179;48.022;7.858;2022-07-04T05:48:07;99111.84;;;20.28;41.75
30383;BME280;17179;48.022;7.858;2022-07-04T05:50:32;99096.38;;;20.32;41.94
30383;BME280;17179;48.022;7.858;2022-07-04T05:52:58;99082.84;;;20.35;42.40
30383;BME280;17179;48.022;7.858;2022-07-04T05:55:23;99068.78;;;20.37;42.38
30383;BME280;17179;48.022;7.858;2022-07-04T05:57:49;99076.75;;;20.38;42.33
30383;BME280;17179;48.022;7.858;2022-07-04T06:00:14;99076.94;;;20.42;42.38
30383;BME280;17179;48.022;7.858;2022-07-04T06:02:40;99071.94;;;20.44;42.75
30383;BME280;17179;48.022;7.858;2022-07-04T06:05:07;99068.56;;;20.47;42.34
30383;BME280;17179;48.022;7.858;2022-07-04T06:07:32;99077.31;;;20.49;41.76
30383;BME280;17179;48.022;7.858;2022-07-04T06:09:57;99082.47;;;20.51;41.74
30383;BME280;17179;48.022;7.858;2022-07-04T06:12:23;99095.91;;;20.53;41.17
30383;BME280;17179;48.022;7.858;2022-07-04T06:14:48;99090.59;;;20.56;41.46
30383;BME280;17179;48.022;7.858;2022-07-04T06:17:14;99081.41;;;20.61;41.62
30383;BME280;17179;48.022;7.858;2022-07-04T06:19:39;99097.28;;;20.64;41.54
30383;BME280;17179;48.022;7.858;2022-07-04T06:22:05;99086.19;;;20.69;41.14
30383;BME280;17179;48.022;7.858;2022-07-04T06:24:30;99083.94;;;20.71;40.16
30383;BME280;17179;48.022;7.858;2022-07-04T06:26:55;99094.81;;;20.77;41.41
30383;BME280;17179;48.022;7.858;2022-07-04T06:29:21;99094.66;;;20.82;39.97
30383;BME280;17179;48.022;7.858;2022-07-04T06:31:46;99104.75;;;20.87;40.37
30383;BME280;17179;48.022;7.858;2022-07-04T06:34:12;99112.03;;;20.91;40.13
30383;BME280;17179;48.022;7.858;2022-07-04T06:36:55;99124.03;;;20.95;40.66
30383;BME280;17179;48.022;7.858;2022-07-04T06:39:21;99126.13;;;20.99;40.17
30383;BME280;17179;48.022;7.858;2022-07-04T06:41:46;99133.28;;;21.00;40.07
30383;BME280;17179;48.022;7.858;2022-07-04T06:44:11;99129.88;;;21.03;40.58
30383;BME280;17179;48.022;7.858;2022-07-04T06:46:37;99122.13;;;21.05;40.13
30383;BME280;17179;48.022;7.858;2022-07-04T06:49:02;99124.25;;;21.08;40.30
30383;BME280;17179;48.022;7.858;2022-07-04T06:51:27;99129.63;;;21.13;39.95
30383;BME280;17179;48.022;7.858;2022-07-04T06:53:53;99125.75;;;21.14;39.89
30383;BME280;17179;48.022;7.858;2022-07-04T06:56:18;99123.97;;;21.18;40.16
30383;BME280;17179;48.022;7.858;2022-07-04T06:58:44;99121.22;;;21.18;40.61
30383;BME280;17179;48.022;7.858;2022-07-04T07:01:09;99112.66;;;21.20;40.16
30383;BME280;17179;48.022;7.858;2022-07-04T07:03:35;99116.41;;;21.24;40.65
30383;BME280;17179;48.022;7.858;2022-07-04T07:06:00;99133.09;;;21.28;40.56
30383;BME280;17179;48.022;7.858;2022-07-04T07:08:30;99139.59;;;21.32;40.30
30383;BME280;17179;48.022;7.858;2022-07-04T07:10:57;99134.56;;;21.34;40.61
30383;BME280;17179;48.022;7.858;2022-07-04T07:13:22;99146.59;;;21.38;40.60
30383;BME280;17179;48.022;7.858;2022-07-04T07:15:48;99150.34;;;21.42;41.46
30383;BME280;17179;48.022;7.858;2022-07-04T07:18:13;99150.03;;;21.44;40.21
30383;BME280;17179;48.022;7.858;2022-07-04T07:20:39;99157.31;;;21.49;40.68
30383;BME280;17179;48.022;7.858;2022-07-04T07:23:04;99158.63;;;21.51;40.27
30383;BME280;17179;48.022;7.858;2022-07-04T07:25:30;99159.63;;;21.55;40.13
30383;BME280;17179;48.022;7.858;2022-07-04T07:27:55;99160.41;;;21.56;40.30
30383;BME280;17179;48.022;7.858;2022-07-04T07:30:21;99156.72;;;21.61;40.82
30383;BME280;17179;48.022;7.858;2022-07-04T07:32:46;99150.91;;;21.62;40.23
30383;BME280;17179;48.022;7.858;2022-07-04T07:35:12;99152.22;;;21.65;39.81
30383;BME280;17179;48.022;7.858;2022-07-04T07:37:37;99146.38;;;21.66;39.63
30383;BME280;17179;48.022;7.858;2022-07-04T07:40:03;99152.06;;;21.70;40.18
30383;BME280;17179;48.022;7.858;2022-07-04T07:42:28;99156.13;;;21.73;40.10
30383;BME280;17179;48.022;7.858;2022-07-04T07:44:54;99145.94;;;21.73;39.79
30383;BME280;17179;48.022;7.858;2022-07-04T07:47:19;99131.84;;;21.75;39.74
30383;BME280;17179;48.022;7.858;2022-07-04T07:49:44;99131.53;;;21.76;39.51
30383;BME280;17179;48.022;7.858;2022-07-04T07:52:12;99134.78;;;21.78;39.63
30383;BME280;17179;48.022;7.858;2022-07-04T07:54:38;99139.94;;;21.80;39.46
30383;BME280;17179;48.022;7.858;2022-07-04T07:57:03;99132.50;;;21.81;40.70
30383;BME280;17179;48.022;7.858;2022-07-04T07:59:29;99124.75;;;21.83;40.18
30383;BME280;17179;48.022;7.858;2022-07-04T08:01:54;99124.75;;;21.83;40.16
30383;BME280;17179;48.022;7.858;2022-07-04T08:04:20;99127.50;;;21.83;40.11
30383;BME280;17179;48.022;7.858;2022-07-04T08:07:10;99121.84;;;21.88;40.02
30383;BME280;17179;48.022;7.858;2022-07-04T08:09:37;99123.94;;;21.82;39.73
30383;BME280;17179;48.022;7.858;2022-07-04T08:12:04;99119.53;;;21.81;39.63
30383;BME280;17179;48.022;7.858;2022-07-04T08:14:30;99112.09;;;21.82;39.56
30383;BME280;17179;48.022;7.858;2022-07-04T08:16:56;99103.84;;;21.82;39.83
30383;BME280;17179;48.022;7.858;2022-07-04T08:19:23;99106.91;;;21.80;39.86
30383;BME280;17179;48.022;7.858;2022-07-04T08:21:49;99095.09;;;21.79;39.92
30383;BME280;17179;48.022;7.858;2022-07-04T08:24:15;99095.09;;;21.79;39.75
30383;BME280;17179;48.022;7.858;2022-07-04T08:26:41;99095.09;;;21.79;39.43
30383;BME280;17179;48.022;7.858;2022-07-04T08:29:07;99086.34;;;21.77;39.37
30383;BME280;17179;48.022;7.858;2022-07-04T08:31:32;99086.34;;;21.77;39.37
30383;BME280;17179;48.022;7.858;2022-07-04T08:33:58;99086.34;;;21.77;40.31
30383;BME280;17179;48.022;7.858;2022-07-04T08:36:23;99071.78;;;21.77;40.22
30383;BME280;17179;48.022;7.858;2022-07-04T08:38:49;99082.78;;;21.77;39.81
30383;BME280;17179;48.022;7.858;2022-07-04T08:41:16;99075.03;;;21.79;40.34
30383;BME280;17179;48.022;7.858;2022-07-04T08:43:42;99080.22;;;21.81;41.43
30383;BME280;17179;48.022;7.858;2022-07-04T08:46:10;99075.97;;;21.83;41.69
30383;BME280;17179;48.022;7.858;2022-07-04T08:48:37;99084.41;;;21.87;40.55
30383;BME280;17179;48.022;7.858;2022-07-04T08:51:13;99085.56;;;21.95;40.08
30383;BME280;17179;48.022;7.858;2022-07-04T08:53:42;99087.19;;;21.96;39.93
30383;BME280;17179;48.022;7.858;2022-07-04T08:56:09;99088.47;;;21.98;40.91
30383;BME280;17179;48.022;7.858;2022-07-04T08:58:55;99094.03;;;22.07;40.19
30383;BME280;17179;48.022;7.858;2022-07-04T09:01:21;99089.50;;;22.11;40.59
30383;BME280;17179;48.022;7.858;2022-07-04T09:03:49;99092.25;;;22.20;40.47
30383;BME280;17179;48.022;7.858;2022-07-04T09:06:15;99103.44;;;22.24;40.08
30383;BME280;17179;48.022;7.858;2022-07-04T09:08:40;99102.16;;;22.30;39.87
30383;BME280;17179;48.022;7.858;2022-07-04T09:11:07;99099.72;;;22.37;40.05
30383;BME280;17179;48.022;7.858;2022-07-04T09:13:32;99110.56;;;22.43;40.08
30383;BME280;17179;48.022;7.858;2022-07-04T09:15:59;99092.72;;;22.49;40.06
30383;BME280;17179;48.022;7.858;2022-07-04T09:18:26;99088.69;;;22.55;39.75
30383;BME280;17179;48.022;7.858;2022-07-04T09:20:54;99084.63;;;22.61;39.27
30383;BME280;17179;48.022;7.858;2022-07-04T09:23:24;99090.63;;;22.72;39.32
30383;BME280;17179;48.022;7.858;2022-07-04T09:28:35;99087.84;;;22.81;39.21
30383;BME280;17179;48.022;7.858;2022-07-04T09:31:00;99091.22;;;22.87;38.90
30383;BME280;17179;48.022;7.858;2022-07-04T09:33:45;99080.00;;;23.01;39.24
30383;BME280;17179;48.022;7.858;2022-07-04T09:36:14;99077.06;;;23.06;40.15
30383;BME280;17179;48.022;7.858;2022-07-04T09:38:39;99077.69;;;23.12;40.81
30383;BME280;17179;48.022;7.858;2022-07-04T09:41:05;99083.19;;;23.21;40.61
30383;BME280;17179;48.022;7.858;2022-07-04T09:46:26;99083.59;;;23.50;40.14
30383;BME280;17179;48.022;7.858;2022-07-04T09:48:51;99096.81;;;23.65;40.60
30383;BME280;17179;48.022;7.858;2022-07-04T09:51:45;99091.78;;;23.89;39.72
30383;BME280;17179;48.022;7.858;2022-07-04T09:56:50;99089.75;;;24.29;38.84
30383;BME280;17179;48.022;7.858;2022-07-04T09:59:17;99088.44;;;24.47;39.44
30383;BME280;17179;48.022;7.858;2022-07-04T10:01:42;99086.31;;;24.66;38.28
30383;BME280;17179;48.022;7.858;2022-07-04T10:04:08;99080.16;;;24.81;37.40
30383;BME280;17179;48.022;7.858;2022-07-04T10:06:37;99077.66;;;25.01;36.43
30383;BME280;17179;48.022;7.858;2022-07-04T10:09:13;99074.91;;;25.14;37.29
30383;BME280;17179;48.022;7.858;2022-07-04T10:11:41;99070.75;;;25.20;37.29
30383;BME280;17179;48.022;7.858;2022-07-04T10:14:09;99072.28;;;25.30;36.06
30383;BME280;17179;48.022;7.858;2022-07-04T10:16:35;99075.63;;;25.36;35.33
30383;BME280;17179;48.022;7.858;2022-07-04T10:19:01;99075.41;;;25.41;37.29
30383;BME280;17179;48.022;7.858;2022-07-04T10:21:27;99068.84;;;25.46;36.61
30383;BME280;17179;48.022;7.858;2022-07-04T10:23:53;99073.22;;;25.47;36.43
30383;BME280;17179;48.022;7.858;2022-07-04T10:26:19;99073.00;;;25.52;34.51
30383;BME280;17179;48.022;7.858;2022-07-04T10:28:45;99069.53;;;25.55;35.17
30383;BME280;17179;48.022;7.858;2022-07-04T10:31:13;99078.28;;;25.57;35.85
30383;BME280;17179;48.022;7.858;2022-07-04T10:33:40;99067.31;;;25.61;36.35
30383;BME280;17179;48.022;7.858;2022-07-04T10:36:22;99070.41;;;25.72;36.17
30383;BME280;17179;48.022;7.858;2022-07-04T10:38:54;99073.66;;;25.74;34.95
30383;BME280;17179;48.022;7.858;2022-07-04T10:41:21;99068.56;;;25.76;35.29
30383;BME280;17179;48.022;7.858;2022-07-04T10:51:50;99075.34;;;26.04;35.81
30383;BME280;17179;48.022;7.858;2022-07-04T10:54:17;99069.47;;;26.05;33.87
30383;BME280;17179;48.022;7.858;2022-07-04T10:56:48;99073.00;;;26.18;34.25
30383;BME280;17179;48.022;7.858;2022-07-04T11:01:48;99073.75;;;26.31;34.22
30383;BME280;17179;48.022;7.858;2022-07-04T11:07:22;99070.44;;;26.54;34.34
30383;BME280;17179;48.022;7.858;2022-07-04T11:13:02;99057.78;;;26.85;33.88
30383;BME280;17179;48.022;7.858;2022-07-04T11:20:27;99059.16;;;27.40;35.23
30383;BME280;17179;48.022;7.858;2022-07-04T11:23:12;99058.13;;;27.65;33.84
30383;BME280;17179;48.022;7.858;2022-07-04T11:25:39;99052.63;;;27.85;31.51
30383;BME280;17179;48.022;7.858;2022-07-04T11:28:24;99044.41;;;28.12;32.94
30383;BME280;17179;48.022;7.858;2022-07-04T11:30:55;99036.03;;;28.28;33.72
30383;BME280;17179;48.022;7.858;2022-07-04T11:33:23;99036.75;;;28.45;32.87
30383;BME280;17179;48.022;7.858;2022-07-04T11:36:12;99036.78;;;28.68;34.13
30383;BME280;17179;48.022;7.858;2022-07-04T11:38:59;99040.69;;;28.87;32.24
30383;BME280;17179;48.022;7.858;2022-07-04T11:41:33;99041.38;;;29.04;30.38
30383;BME280;17179;48.022;7.858;2022-07-04T11:44:20;99050.47;;;29.24;30.44
30383;BME280;17179;48.022;7.858;2022-07-04T11:47:53;99031.69;;;29.45;29.29
30383;BME280;17179;48.022;7.858;2022-07-04T11:49:55;99031.53;;;29.64;30.07
30383;BME280;17179;48.022;7.858;2022-07-04T11:52:23;99034.59;;;29.83;32.07
30383;BME280;17179;48.022;7.858;2022-07-04T11:54:50;99042.31;;;29.97;27.94
30383;BME280;17179;48.022;7.858;2022-07-04T11:57:25;99024.31;;;30.21;27.90
30383;BME280;17179;48.022;7.858;2022-07-04T11:59:53;99029.75;;;30.45;28.84
30383;BME280;17179;48.022;7.858;2022-07-04T12:02:19;99032.34;;;30.65;28.89
30383;BME280;17179;48.022;7.858;2022-07-04T12:04:44;99037.28;;;30.79;28.63
30383;BME280;17179;48.022;7.858;2022-07-04T12:07:19;99035.41;;;30.94;28.53
30383;BME280;17179;48.022;7.858;2022-07-04T12:09:46;99035.44;;;30.98;27.39
30383;BME280;17179;48.022;7.858;2022-07-04T12:12:12;99033.50;;;31.05;26.94
30383;BME280;17179;48.022;7.858;2022-07-04T12:14:39;99035.09;;;31.06;26.26
30383;BME280;17179;48.022;7.858;2022-07-04T12:17:17;99030.81;;;31.20;26.75
30383;BME280;17179;48.022;7.858;2022-07-04T12:19:53;99039.59;;;31.22;25.98
30383;BME280;17179;48.022;7.858;2022-07-04T12:22:30;99026.81;;;31.17;25.94
30383;BME280;17179;48.022;7.858;2022-07-04T12:24:57;99023.50;;;31.04;25.59
30383;BME280;17179;48.022;7.858;2022-07-04T12:27:23;99009.06;;;30.91;25.68
30383;BME280;17179;48.022;7.858;2022-07-04T12:29:50;99003.44;;;30.88;25.50
30383;BME280;17179;48.022;7.858;2022-07-04T12:32:16;98999.41;;;30.81;26.73
30383;BME280;17179;48.022;7.858;2022-07-04T12:34:43;98997.75;;;30.77;25.69
30383;BME280;17179;48.022;7.858;2022-07-04T12:37:10;98987.31;;;30.70;25.29
30383;BME280;17179;48.022;7.858;2022-07-04T12:39:37;98989.69;;;30.68;25.73
30383;BME280;17179;48.022;7.858;2022-07-04T12:42:11;98986.97;;;30.71;28.04
30383;BME280;17179;48.022;7.858;2022-07-04T12:44:37;98973.72;;;30.65;25.91
30383;BME280;17179;48.022;7.858;2022-07-04T12:47:04;98971.72;;;30.62;25.94
30383;BME280;17179;48.022;7.858;2022-07-04T12:49:31;98971.28;;;30.56;25.98
30383;BME280;17179;48.022;7.858;2022-07-04T12:52:10;98966.09;;;30.54;26.93
30383;BME280;17179;48.022;7.858;2022-07-04T12:54:37;98970.75;;;30.43;26.20
30383;BME280;17179;48.022;7.858;2022-07-04T12:57:10;98971.47;;;30.32;26.62
30383;BME280;17179;48.022;7.858;2022-07-04T12:59:37;98976.09;;;30.21;26.91
30383;BME280;17179;48.022;7.858;2022-07-04T13:02:03;98973.91;;;30.03;26.60
30383;BME280;17179;48.022;7.858;2022-07-04T13:04:29;98965.41;;;29.88;26.75
30383;BME280;17179;48.022;7.858;2022-07-04T13:06:56;98961.69;;;29.77;27.69
30383;BME280;17179;48.022;7.858;2022-07-04T13:09:22;98975.47;;;29.70;27.56
30383;BME280;17179;48.022;7.858;2022-07-04T13:11:47;98975.16;;;29.75;27.96
30383;BME280;17179;48.022;7.858;2022-07-04T13:14:31;98973.38;;;29.90;28.12
30383;BME280;17179;48.022;7.858;2022-07-04T13:16:57;98981.63;;;30.17;27.09
30383;BME280;17179;48.022;7.858;2022-07-04T13:19:22;98982.75;;;30.47;26.40
30383;BME280;17179;48.022;7.858;2022-07-04T13:21:48;98983.41;;;30.78;25.93
30383;BME280;17179;48.022;7.858;2022-07-04T13:24:13;98986.84;;;31.06;25.99
30383;BME280;17179;48.022;7.858;2022-07-04T13:26:38;98978.56;;;31.21;25.22
30383;BME280;17179;48.022;7.858;2022-07-04T13:29:05;98984.56;;;31.26;26.07
30383;BME280;17179;48.022;7.858;2022-07-04T13:31:31;98977.41;;;31.25;24.72